Princeton, New Jersey
Current Conditions -  °F | °C
As of 7:53 PM on Monday 26 Jan 2015 (Local Time) from KTTN Reporting Station
Unknown Precip Unknown Precip  
Wind Chill: 13°   Ceiling: 2400
Heat Index: 26°   Visibility: 5mi
Dew Point: 21°   Wind: 17mph
Humidity: 81%   Direction: 40°NE
Pressure: 29.76"   Gusts: 29mph
Location:  40.35°N, 74.66°W
Report Text: KTTN 270053Z 04015G25KT 5SM UP FEW013 BKN024 OVC028 M03/M06 A2976 RMK AO2 UPB53SNE44 SLP074 P0000 T10331061
Loading
Personal Weather Stations






























Interactive Weather Map New forecast layout! Learn more

10-Day Weather Forecast

Advertisements
Track Severe Weather on mobile